sensor_id;sensor_type;location;lat;lon;timestamp;P1;durP1;ratioP1;P2;durP2;ratioP2
44664;SDS011;30382;48.802;9.388;2022-07-22T00:00:15;7.50;;;6.80;;
44664;SDS011;30382;48.802;9.388;2022-07-22T00:02:59;8.13;;;7.50;;
44664;SDS011;30382;48.802;9.388;2022-07-22T00:05:44;7.70;;;7.07;;
44664;SDS011;30382;48.802;9.388;2022-07-22T00:08:28;8.80;;;7.10;;
44664;SDS011;30382;48.802;9.388;2022-07-22T00:11:13;8.37;;;7.67;;
44664;SDS011;30382;48.802;9.388;2022-07-22T00:13:57;7.60;;;7.10;;
44664;SDS011;30382;48.802;9.388;2022-07-22T00:16:41;11.20;;;7.40;;
44664;SDS011;30382;48.802;9.388;2022-07-22T00:19:26;7.80;;;7.10;;
44664;SDS011;30382;48.802;9.388;2022-07-22T00:22:10;8.23;;;7.60;;
44664;SDS011;30382;48.802;9.388;2022-07-22T00:24:54;7.40;;;6.67;;
44664;SDS011;30382;48.802;9.388;2022-07-22T00:27:38;7.03;;;6.43;;
44664;SDS011;30382;48.802;9.388;2022-07-22T00:30:23;7.80;;;7.10;;
44664;SDS011;30382;48.802;9.388;2022-07-22T00:33:07;7.50;;;6.90;;
44664;SDS011;30382;48.802;9.388;2022-07-22T00:35:51;8.83;;;8.07;;
44664;SDS011;30382;48.802;9.388;2022-07-22T00:38:36;8.57;;;7.77;;
44664;SDS011;30382;48.802;9.388;2022-07-22T00:41:20;8.47;;;7.67;;
44664;SDS011;30382;48.802;9.388;2022-07-22T00:44:05;7.80;;;7.07;;
44664;SDS011;30382;48.802;9.388;2022-07-22T00:46:50;8.30;;;7.60;;
44664;SDS011;30382;48.802;9.388;2022-07-22T00:49:34;7.90;;;7.20;;
44664;SDS011;30382;48.802;9.388;2022-07-22T00:52:19;8.73;;;7.67;;
44664;SDS011;30382;48.802;9.388;2022-07-22T00:55:04;9.87;;;7.30;;
44664;SDS011;30382;48.802;9.388;2022-07-22T00:57:49;7.50;;;6.90;;
44664;SDS011;30382;48.802;9.388;2022-07-22T01:00:33;7.70;;;7.00;;
44664;SDS011;30382;48.802;9.388;2022-07-22T01:03:18;8.83;;;7.80;;
44664;SDS011;30382;48.802;9.388;2022-07-22T01:06:02;8.43;;;7.60;;
44664;SDS011;30382;48.802;9.388;2022-07-22T01:08:47;8.17;;;7.17;;
44664;SDS011;30382;48.802;9.388;2022-07-22T01:11:31;7.10;;;6.60;;
44664;SDS011;30382;48.802;9.388;2022-07-22T01:14:15;8.60;;;7.80;;
44664;SDS011;30382;48.802;9.388;2022-07-22T01:17:00;8.17;;;7.47;;
44664;SDS011;30382;48.802;9.388;2022-07-22T01:19:44;7.77;;;7.10;;
44664;SDS011;30382;48.802;9.388;2022-07-22T01:22:30;8.70;;;7.90;;
44664;SDS011;30382;48.802;9.388;2022-07-22T01:25:14;7.50;;;6.90;;
44664;SDS011;30382;48.802;9.388;2022-07-22T01:27:58;7.93;;;7.30;;
44664;SDS011;30382;48.802;9.388;2022-07-22T01:30:43;7.87;;;7.17;;
44664;SDS011;30382;48.802;9.388;2022-07-22T01:33:27;11.53;;;7.97;;
44664;SDS011;30382;48.802;9.388;2022-07-22T01:36:12;8.50;;;7.70;;
44664;SDS011;30382;48.802;9.388;2022-07-22T01:38:56;7.57;;;6.93;;
44664;SDS011;30382;48.802;9.388;2022-07-22T01:41:41;8.53;;;7.73;;
44664;SDS011;30382;48.802;9.388;2022-07-22T01:44:30;8.17;;;7.47;;
44664;SDS011;30382;48.802;9.388;2022-07-22T01:47:14;8.27;;;7.47;;
44664;SDS011;30382;48.802;9.388;2022-07-22T01:49:59;7.87;;;7.27;;
44664;SDS011;30382;48.802;9.388;2022-07-22T01:52:43;7.87;;;7.17;;
44664;SDS011;30382;48.802;9.388;2022-07-22T01:55:27;8.47;;;7.70;;
44664;SDS011;30382;48.802;9.388;2022-07-22T01:58:14;8.63;;;7.80;;
44664;SDS011;30382;48.802;9.388;2022-07-22T02:00:59;8.43;;;7.60;;
44664;SDS011;30382;48.802;9.388;2022-07-22T02:03:43;8.57;;;7.77;;
44664;SDS011;30382;48.802;9.388;2022-07-22T02:06:27;8.10;;;7.40;;
44664;SDS011;30382;48.802;9.388;2022-07-22T02:09:14;8.67;;;7.90;;
44664;SDS011;30382;48.802;9.388;2022-07-22T02:12:01;11.30;;;7.70;;
44664;SDS011;30382;48.802;9.388;2022-07-22T02:14:48;8.23;;;7.57;;
44664;SDS011;30382;48.802;9.388;2022-07-22T02:17:33;8.77;;;7.97;;
44664;SDS011;30382;48.802;9.388;2022-07-22T02:20:17;8.23;;;7.50;;
44664;SDS011;30382;48.802;9.388;2022-07-22T02:23:02;9.07;;;8.23;;
44664;SDS011;30382;48.802;9.388;2022-07-22T02:25:46;7.87;;;7.17;;
44664;SDS011;30382;48.802;9.388;2022-07-22T02:28:30;9.87;;;8.63;;
44664;SDS011;30382;48.802;9.388;2022-07-22T02:31:15;10.60;;;7.60;;
44664;SDS011;30382;48.802;9.388;2022-07-22T02:33:59;9.23;;;8.37;;
44664;SDS011;30382;48.802;9.388;2022-07-22T02:36:46;8.97;;;7.70;;
44664;SDS011;30382;48.802;9.388;2022-07-22T02:39:30;8.67;;;7.93;;
44664;SDS011;30382;48.802;9.388;2022-07-22T02:42:15;8.50;;;7.90;;
44664;SDS011;30382;48.802;9.388;2022-07-22T02:45:02;9.13;;;8.33;;
44664;SDS011;30382;48.802;9.388;2022-07-22T02:47:51;8.90;;;8.10;;
44664;SDS011;30382;48.802;9.388;2022-07-22T02:50:36;8.70;;;8.00;;
44664;SDS011;30382;48.802;9.388;2022-07-22T02:53:22;9.73;;;8.33;;
44664;SDS011;30382;48.802;9.388;2022-07-22T02:56:07;9.63;;;7.70;;
44664;SDS011;30382;48.802;9.388;2022-07-22T02:58:52;8.80;;;8.10;;
44664;SDS011;30382;48.802;9.388;2022-07-22T03:01:37;7.83;;;7.23;;
44664;SDS011;30382;48.802;9.388;2022-07-22T03:04:21;8.37;;;7.70;;
44664;SDS011;30382;48.802;9.388;2022-07-22T03:07:06;7.50;;;6.90;;
44664;SDS011;30382;48.802;9.388;2022-07-22T03:09:50;8.00;;;7.40;;
44664;SDS011;30382;48.802;9.388;2022-07-22T03:12:34;8.47;;;7.73;;
44664;SDS011;30382;48.802;9.388;2022-07-22T03:15:19;8.80;;;8.00;;
44664;SDS011;30382;48.802;9.388;2022-07-22T03:18:03;8.77;;;7.90;;
44664;SDS011;30382;48.802;9.388;2022-07-22T03:20:47;8.97;;;8.10;;
44664;SDS011;30382;48.802;9.388;2022-07-22T03:23:32;7.83;;;7.10;;
44664;SDS011;30382;48.802;9.388;2022-07-22T03:26:16;8.87;;;8.07;;
44664;SDS011;30382;48.802;9.388;2022-07-22T03:29:01;7.70;;;7.10;;
44664;SDS011;30382;48.802;9.388;2022-07-22T03:31:45;9.27;;;8.23;;
44664;SDS011;30382;48.802;9.388;2022-07-22T03:34:30;8.83;;;8.03;;
44664;SDS011;30382;48.802;9.388;2022-07-22T03:37:22;9.20;;;7.17;;
44664;SDS011;30382;48.802;9.388;2022-07-22T03:40:06;8.63;;;7.83;;
44664;SDS011;30382;48.802;9.388;2022-07-22T03:42:51;7.87;;;7.23;;
44664;SDS011;30382;48.802;9.388;2022-07-22T03:45:35;9.40;;;8.10;;
44664;SDS011;30382;48.802;9.388;2022-07-22T03:48:19;9.53;;;8.63;;
44664;SDS011;30382;48.802;9.388;2022-07-22T03:51:04;8.70;;;7.90;;
44664;SDS011;30382;48.802;9.388;2022-07-22T03:53:48;8.63;;;7.80;;
44664;SDS011;30382;48.802;9.388;2022-07-22T03:56:32;10.60;;;9.13;;
44664;SDS011;30382;48.802;9.388;2022-07-22T03:59:17;7.70;;;7.00;;
44664;SDS011;30382;48.802;9.388;2022-07-22T04:02:02;10.47;;;7.80;;
44664;SDS011;30382;48.802;9.388;2022-07-22T04:04:47;8.37;;;7.70;;
44664;SDS011;30382;48.802;9.388;2022-07-22T04:07:31;8.50;;;7.70;;
44664;SDS011;30382;48.802;9.388;2022-07-22T04:10:15;8.73;;;7.93;;
44664;SDS011;30382;48.802;9.388;2022-07-22T04:13:02;8.43;;;7.77;;
44664;SDS011;30382;48.802;9.388;2022-07-22T04:16:00;8.37;;;7.57;;
44664;SDS011;30382;48.802;9.388;2022-07-22T04:18:46;8.63;;;7.93;;
44664;SDS011;30382;48.802;9.388;2022-07-22T04:21:31;8.37;;;7.57;;
44664;SDS011;30382;48.802;9.388;2022-07-22T04:24:20;9.90;;;9.00;;
44664;SDS011;30382;48.802;9.388;2022-07-22T04:27:05;9.40;;;8.60;;
44664;SDS011;30382;48.802;9.388;2022-07-22T04:29:51;8.57;;;7.77;;
44664;SDS011;30382;48.802;9.388;2022-07-22T04:32:36;8.47;;;7.67;;
44664;SDS011;30382;48.802;9.388;2022-07-22T04:35:21;8.57;;;7.77;;
44664;SDS011;30382;48.802;9.388;2022-07-22T04:38:21;9.10;;;8.40;;
44664;SDS011;30382;48.802;9.388;2022-07-22T04:41:19;10.23;;;9.17;;
44664;SDS011;30382;48.802;9.388;2022-07-22T04:44:03;9.53;;;8.70;;
44664;SDS011;30382;48.802;9.388;2022-07-22T04:46:50;9.53;;;8.63;;
44664;SDS011;30382;48.802;9.388;2022-07-22T04:49:35;9.60;;;8.60;;
44664;SDS011;30382;48.802;9.388;2022-07-22T04:52:19;13.27;;;9.27;;
44664;SDS011;30382;48.802;9.388;2022-07-22T04:55:06;10.20;;;9.30;;
44664;SDS011;30382;48.802;9.388;2022-07-22T04:57:50;9.47;;;8.67;;
44664;SDS011;30382;48.802;9.388;2022-07-22T05:00:37;9.83;;;9.00;;
44664;SDS011;30382;48.802;9.388;2022-07-22T05:03:21;10.40;;;8.87;;
44664;SDS011;30382;48.802;9.388;2022-07-22T05:06:05;9.93;;;9.03;;
44664;SDS011;30382;48.802;9.388;2022-07-22T05:08:55;9.47;;;8.57;;
44664;SDS011;30382;48.802;9.388;2022-07-22T05:11:40;10.67;;;9.70;;
44664;SDS011;30382;48.802;9.388;2022-07-22T05:14:25;10.03;;;8.17;;
44664;SDS011;30382;48.802;9.388;2022-07-22T05:17:10;10.20;;;9.27;;
44664;SDS011;30382;48.802;9.388;2022-07-22T05:20:03;8.93;;;8.07;;
44664;SDS011;30382;48.802;9.388;2022-07-22T05:22:50;9.70;;;8.80;;
44664;SDS011;30382;48.802;9.388;2022-07-22T05:25:40;9.30;;;8.50;;
44664;SDS011;30382;48.802;9.388;2022-07-22T05:28:25;10.10;;;9.10;;
44664;SDS011;30382;48.802;9.388;2022-07-22T05:31:09;12.07;;;10.67;;
44664;SDS011;30382;48.802;9.388;2022-07-22T05:33:55;9.77;;;8.77;;
44664;SDS011;30382;48.802;9.388;2022-07-22T05:36:46;10.17;;;9.27;;
44664;SDS011;30382;48.802;9.388;2022-07-22T05:39:32;11.03;;;10.00;;
44664;SDS011;30382;48.802;9.388;2022-07-22T05:42:16;10.57;;;9.57;;
44664;SDS011;30382;48.802;9.388;2022-07-22T05:45:00;10.47;;;9.47;;
44664;SDS011;30382;48.802;9.388;2022-07-22T05:47:44;8.93;;;8.20;;
44664;SDS011;30382;48.802;9.388;2022-07-22T05:50:29;10.93;;;9.93;;
44664;SDS011;30382;48.802;9.388;2022-07-22T05:53:13;10.80;;;9.90;;
44664;SDS011;30382;48.802;9.388;2022-07-22T05:55:58;11.60;;;10.40;;
44664;SDS011;30382;48.802;9.388;2022-07-22T05:58:43;13.90;;;12.43;;
44664;SDS011;30382;48.802;9.388;2022-07-22T06:01:30;12.00;;;10.90;;
44664;SDS011;30382;48.802;9.388;2022-07-22T06:04:17;12.70;;;11.50;;
44664;SDS011;30382;48.802;9.388;2022-07-22T06:07:01;11.43;;;10.33;;
44664;SDS011;30382;48.802;9.388;2022-07-22T06:09:45;11.67;;;10.60;;
44664;SDS011;30382;48.802;9.388;2022-07-22T06:12:31;11.80;;;10.50;;
44664;SDS011;30382;48.802;9.388;2022-07-22T06:15:15;12.77;;;11.57;;
44664;SDS011;30382;48.802;9.388;2022-07-22T06:18:00;11.83;;;10.70;;
44664;SDS011;30382;48.802;9.388;2022-07-22T06:20:44;11.43;;;10.47;;
44664;SDS011;30382;48.802;9.388;2022-07-22T06:23:29;12.83;;;11.73;;
44664;SDS011;30382;48.802;9.388;2022-07-22T06:26:14;12.97;;;11.70;;
44664;SDS011;30382;48.802;9.388;2022-07-22T06:28:59;11.50;;;10.50;;
44664;SDS011;30382;48.802;9.388;2022-07-22T06:31:43;12.37;;;11.07;;
44664;SDS011;30382;48.802;9.388;2022-07-22T06:34:27;12.77;;;11.67;;
44664;SDS011;30382;48.802;9.388;2022-07-22T06:37:21;13.67;;;12.13;;
44664;SDS011;30382;48.802;9.388;2022-07-22T06:40:05;12.53;;;11.23;;
44664;SDS011;30382;48.802;9.388;2022-07-22T06:43:03;11.40;;;10.37;;
44664;SDS011;30382;48.802;9.388;2022-07-22T06:46:06;11.17;;;10.27;;
44664;SDS011;30382;48.802;9.388;2022-07-22T06:49:01;11.03;;;10.00;;
44664;SDS011;30382;48.802;9.388;2022-07-22T06:51:50;11.67;;;10.57;;
44664;SDS011;30382;48.802;9.388;2022-07-22T06:54:34;11.70;;;10.67;;
44664;SDS011;30382;48.802;9.388;2022-07-22T06:57:20;12.40;;;11.10;;
44664;SDS011;30382;48.802;9.388;2022-07-22T07:00:05;11.10;;;9.90;;
44664;SDS011;30382;48.802;9.388;2022-07-22T07:02:59;12.67;;;11.60;;
44664;SDS011;30382;48.802;9.388;2022-07-22T07:05:43;11.20;;;10.20;;
44664;SDS011;30382;48.802;9.388;2022-07-22T07:08:28;12.33;;;11.10;;
44664;SDS011;30382;48.802;9.388;2022-07-22T07:11:12;11.40;;;10.30;;
44664;SDS011;30382;48.802;9.388;2022-07-22T07:13:57;11.90;;;10.90;;
44664;SDS011;30382;48.802;9.388;2022-07-22T07:16:41;10.60;;;9.70;;
44664;SDS011;30382;48.802;9.388;2022-07-22T07:19:26;10.40;;;9.60;;
44664;SDS011;30382;48.802;9.388;2022-07-22T07:22:11;13.87;;;10.93;;
44664;SDS011;30382;48.802;9.388;2022-07-22T07:24:55;11.07;;;9.97;;
44664;SDS011;30382;48.802;9.388;2022-07-22T07:27:39;10.90;;;10.00;;
44664;SDS011;30382;48.802;9.388;2022-07-22T07:30:27;12.10;;;10.70;;
44664;SDS011;30382;48.802;9.388;2022-07-22T07:33:12;9.77;;;8.90;;
44664;SDS011;30382;48.802;9.388;2022-07-22T07:35:56;11.00;;;10.10;;
44664;SDS011;30382;48.802;9.388;2022-07-22T07:38:50;11.50;;;10.60;;
44664;SDS011;30382;48.802;9.388;2022-07-22T07:41:34;11.63;;;10.43;;
44664;SDS011;30382;48.802;9.388;2022-07-22T07:44:19;10.80;;;9.90;;
44664;SDS011;30382;48.802;9.388;2022-07-22T07:47:03;11.00;;;10.03;;
44664;SDS011;30382;48.802;9.388;2022-07-22T07:49:48;10.13;;;9.40;;
44664;SDS011;30382;48.802;9.388;2022-07-22T07:52:36;10.80;;;9.90;;
44664;SDS011;30382;48.802;9.388;2022-07-22T07:55:21;11.30;;;10.20;;
44664;SDS011;30382;48.802;9.388;2022-07-22T07:58:06;10.00;;;9.03;;
44664;SDS011;30382;48.802;9.388;2022-07-22T08:00:51;10.97;;;9.97;;
44664;SDS011;30382;48.802;9.388;2022-07-22T08:03:35;10.00;;;9.10;;
44664;SDS011;30382;48.802;9.388;2022-07-22T08:06:19;10.47;;;9.50;;
44664;SDS011;30382;48.802;9.388;2022-07-22T08:09:04;9.80;;;9.10;;
44664;SDS011;30382;48.802;9.388;2022-07-22T08:11:52;17.23;;;16.03;;
44664;SDS011;30382;48.802;9.388;2022-07-22T08:14:56;10.57;;;9.57;;
44664;SDS011;30382;48.802;9.388;2022-07-22T08:17:59;10.83;;;10.03;;
44664;SDS011;30382;48.802;9.388;2022-07-22T08:20:44;10.20;;;9.50;;
44664;SDS011;30382;48.802;9.388;2022-07-22T08:23:29;11.73;;;10.40;;
44664;SDS011;30382;48.802;9.388;2022-07-22T08:26:14;10.77;;;9.87;;
44664;SDS011;30382;48.802;9.388;2022-07-22T08:28:58;10.00;;;9.30;;
44664;SDS011;30382;48.802;9.388;2022-07-22T08:31:44;10.50;;;9.70;;
44664;SDS011;30382;48.802;9.388;2022-07-22T08:34:31;10.03;;;9.27;;
44664;SDS011;30382;48.802;9.388;2022-07-22T08:37:15;10.30;;;9.50;;
44664;SDS011;30382;48.802;9.388;2022-07-22T08:40:00;10.80;;;9.90;;
44664;SDS011;30382;48.802;9.388;2022-07-22T08:42:45;10.50;;;9.60;;
44664;SDS011;30382;48.802;9.388;2022-07-22T08:45:30;10.77;;;9.67;;
44664;SDS011;30382;48.802;9.388;2022-07-22T08:48:15;9.33;;;8.70;;
44664;SDS011;30382;48.802;9.388;2022-07-22T08:51:09;10.37;;;9.47;;
44664;SDS011;30382;48.802;9.388;2022-07-22T08:54:13;9.80;;;8.97;;
44664;SDS011;30382;48.802;9.388;2022-07-22T08:56:57;9.87;;;9.00;;
44664;SDS011;30382;48.802;9.388;2022-07-22T08:59:52;9.33;;;8.53;;
44664;SDS011;30382;48.802;9.388;2022-07-22T09:02:37;9.10;;;8.40;;
44664;SDS011;30382;48.802;9.388;2022-07-22T09:05:22;9.37;;;8.47;;
44664;SDS011;30382;48.802;9.388;2022-07-22T09:08:07;8.60;;;7.90;;
44664;SDS011;30382;48.802;9.388;2022-07-22T09:11:20;10.00;;;9.10;;
44664;SDS011;30382;48.802;9.388;2022-07-22T09:14:46;9.33;;;8.50;;
44664;SDS011;30382;48.802;9.388;2022-07-22T09:17:58;9.47;;;8.77;;
44664;SDS011;30382;48.802;9.388;2022-07-22T09:20:58;9.97;;;9.17;;
44664;SDS011;30382;48.802;9.388;2022-07-22T09:24:02;9.60;;;8.60;;
44664;SDS011;30382;48.802;9.388;2022-07-22T09:26:47;9.77;;;8.97;;
44664;SDS011;30382;48.802;9.388;2022-07-22T09:29:50;8.50;;;7.80;;
44664;SDS011;30382;48.802;9.388;2022-07-22T09:32:39;8.50;;;7.70;;
44664;SDS011;30382;48.802;9.388;2022-07-22T09:35:39;8.90;;;8.23;;
44664;SDS011;30382;48.802;9.388;2022-07-22T09:38:28;9.73;;;8.93;;
44664;SDS011;30382;48.802;9.388;2022-07-22T09:41:14;10.83;;;8.60;;
44664;SDS011;30382;48.802;9.388;2022-07-22T09:43:58;7.73;;;7.20;;
44664;SDS011;30382;48.802;9.388;2022-07-22T09:47:02;8.50;;;7.80;;
44664;SDS011;30382;48.802;9.388;2022-07-22T10:07:23;8.53;;;7.87;;
44664;SDS011;30382;48.802;9.388;2022-07-22T10:37:45;8.57;;;7.97;;
44664;SDS011;30382;48.802;9.388;2022-07-22T10:40:45;9.33;;;8.57;;
44664;SDS011;30382;48.802;9.388;2022-07-22T10:46:14;9.37;;;8.53;;
44664;SDS011;30382;48.802;9.388;2022-07-22T10:48:58;8.35;;;7.75;;
44664;SDS011;30382;48.802;9.388;2022-07-22T10:57:28;9.35;;;8.57;;
44664;SDS011;30382;48.802;9.388;2022-07-22T11:00:13;7.88;;;7.38;;
44664;SDS011;30382;48.802;9.388;2022-07-22T11:02:57;7.88;;;7.38;;
44664;SDS011;30382;48.802;9.388;2022-07-22T11:05:42;8.38;;;7.78;;
44664;SDS011;30382;48.802;9.388;2022-07-22T11:08:26;7.40;;;7.00;;
44664;SDS011;30382;48.802;9.388;2022-07-22T11:11:11;8.70;;;8.10;;
44664;SDS011;30382;48.802;9.388;2022-07-22T11:13:55;7.50;;;7.00;;
44664;SDS011;30382;48.802;9.388;2022-07-22T11:19:27;8.77;;;8.02;;
44664;SDS011;30382;48.802;9.388;2022-07-22T11:22:12;7.70;;;7.20;;
44664;SDS011;30382;48.802;9.388;2022-07-22T11:24:59;8.55;;;8.05;;
44664;SDS011;30382;48.802;9.388;2022-07-22T11:27:49;7.40;;;7.00;;
44664;SDS011;30382;48.802;9.388;2022-07-22T11:30:34;7.43;;;6.82;;
44664;SDS011;30382;48.802;9.388;2022-07-22T11:33:18;8.50;;;8.00;;
44664;SDS011;30382;48.802;9.388;2022-07-22T11:36:04;8.20;;;7.70;;
44664;SDS011;30382;48.802;9.388;2022-07-22T11:38:49;7.55;;;7.05;;
44664;SDS011;30382;48.802;9.388;2022-07-22T11:41:34;7.32;;;6.93;;
44664;SDS011;30382;48.802;9.388;2022-07-22T11:44:23;8.43;;;7.90;;
44664;SDS011;30382;48.802;9.388;2022-07-22T11:47:08;7.70;;;7.20;;
44664;SDS011;30382;48.802;9.388;2022-07-22T11:49:52;7.68;;;7.18;;
44664;SDS011;30382;48.802;9.388;2022-07-22T11:52:36;8.05;;;7.55;;
44664;SDS011;30382;48.802;9.388;2022-07-22T11:55:20;7.50;;;7.10;;
44664;SDS011;30382;48.802;9.388;2022-07-22T11:58:05;7.35;;;6.80;;
44664;SDS011;30382;48.802;9.388;2022-07-22T12:00:49;7.25;;;6.85;;
44664;SDS011;30382;48.802;9.388;2022-07-22T12:03:34;6.75;;;6.30;;
44664;SDS011;30382;48.802;9.388;2022-07-22T12:06:19;7.53;;;7.10;;
44664;SDS011;30382;48.802;9.388;2022-07-22T12:09:11;8.77;;;7.68;;
44664;SDS011;30382;48.802;9.388;2022-07-22T12:11:56;7.40;;;6.72;;
44664;SDS011;30382;48.802;9.388;2022-07-22T12:14:46;8.18;;;7.55;;
44664;SDS011;30382;48.802;9.388;2022-07-22T12:17:30;7.47;;;6.97;;
44664;SDS011;30382;48.802;9.388;2022-07-22T12:22:58;6.80;;;6.40;;
44664;SDS011;30382;48.802;9.388;2022-07-22T12:25:58;6.25;;;5.85;;
44664;SDS011;30382;48.802;9.388;2022-07-22T12:28:43;7.60;;;6.93;;
44664;SDS011;30382;48.802;9.388;2022-07-22T12:31:27;7.07;;;6.60;;
44664;SDS011;30382;48.802;9.388;2022-07-22T12:34:12;8.30;;;7.70;;
44664;SDS011;30382;48.802;9.388;2022-07-22T12:36:56;7.20;;;6.80;;
44664;SDS011;30382;48.802;9.388;2022-07-22T12:42:41;7.10;;;6.65;;
44664;SDS011;30382;48.802;9.388;2022-07-22T12:48:10;7.25;;;6.65;;
44664;SDS011;30382;48.802;9.388;2022-07-22T12:50:55;6.63;;;6.07;;
44664;SDS011;30382;48.802;9.388;2022-07-22T12:53:40;6.88;;;6.35;;
44664;SDS011;30382;48.802;9.388;2022-07-22T12:56:25;6.80;;;6.40;;
44664;SDS011;30382;48.802;9.388;2022-07-22T12:59:09;6.82;;;6.53;;
44664;SDS011;30382;48.802;9.388;2022-07-22T13:01:54;8.25;;;7.80;;
44664;SDS011;30382;48.802;9.388;2022-07-22T13:04:38;6.75;;;6.25;;
44664;SDS011;30382;48.802;9.388;2022-07-22T13:07:23;7.72;;;7.10;;
44664;SDS011;30382;48.802;9.388;2022-07-22T13:10:07;7.32;;;6.93;;
44664;SDS011;30382;48.802;9.388;2022-07-22T13:12:52;7.68;;;7.18;;
44664;SDS011;30382;48.802;9.388;2022-07-22T13:15:37;7.47;;;6.97;;
44664;SDS011;30382;48.802;9.388;2022-07-22T13:18:21;6.75;;;6.25;;
44664;SDS011;30382;48.802;9.388;2022-07-22T13:21:05;6.95;;;6.57;;
44664;SDS011;30382;48.802;9.388;2022-07-22T13:23:50;5.95;;;5.65;;
44664;SDS011;30382;48.802;9.388;2022-07-22T13:26:34;6.22;;;5.93;;
44664;SDS011;30382;48.802;9.388;2022-07-22T13:29:18;6.28;;;5.97;;
44664;SDS011;30382;48.802;9.388;2022-07-22T13:32:02;6.57;;;6.25;;
44664;SDS011;30382;48.802;9.388;2022-07-22T13:34:47;7.38;;;6.78;;
44664;SDS011;30382;48.802;9.388;2022-07-22T13:37:31;6.93;;;6.32;;
44664;SDS011;30382;48.802;9.388;2022-07-22T13:40:15;6.05;;;5.57;;
44664;SDS011;30382;48.802;9.388;2022-07-22T13:43:00;7.00;;;6.50;;
44664;SDS011;30382;48.802;9.388;2022-07-22T13:45:44;6.97;;;6.57;;
44664;SDS011;30382;48.802;9.388;2022-07-22T13:48:28;7.13;;;6.63;;
44664;SDS011;30382;48.802;9.388;2022-07-22T13:51:12;6.55;;;6.25;;
44664;SDS011;30382;48.802;9.388;2022-07-22T13:53:59;6.85;;;6.45;;
44664;SDS011;30382;48.802;9.388;2022-07-22T13:56:43;6.70;;;6.30;;
44664;SDS011;30382;48.802;9.388;2022-07-22T13:59:28;7.15;;;6.70;;
44664;SDS011;30382;48.802;9.388;2022-07-22T14:02:13;5.93;;;5.63;;
44664;SDS011;30382;48.802;9.388;2022-07-22T14:04:58;7.07;;;6.57;;
44664;SDS011;30382;48.802;9.388;2022-07-22T14:07:43;6.55;;;6.15;;
44664;SDS011;30382;48.802;9.388;2022-07-22T14:10:29;6.70;;;6.30;;
44664;SDS011;30382;48.802;9.388;2022-07-22T14:13:13;6.68;;;6.28;;
44664;SDS011;30382;48.802;9.388;2022-07-22T14:24:31;7.03;;;6.53;;
44664;SDS011;30382;48.802;9.388;2022-07-22T14:27:15;6.80;;;6.50;;
44664;SDS011;30382;48.802;9.388;2022-07-22T14:29:59;6.55;;;6.15;;
44664;SDS011;30382;48.802;9.388;2022-07-22T14:32:44;6.45;;;6.15;;
44664;SDS011;30382;48.802;9.388;2022-07-22T14:35:28;6.80;;;6.40;;
44664;SDS011;30382;48.802;9.388;2022-07-22T14:38:12;5.95;;;5.63;;
44664;SDS011;30382;48.802;9.388;2022-07-22T14:40:57;6.70;;;6.40;;
44664;SDS011;30382;48.802;9.388;2022-07-22T14:43:41;6.03;;;5.72;;
44664;SDS011;30382;48.802;9.388;2022-07-22T14:46:25;6.13;;;5.80;;
44664;SDS011;30382;48.802;9.388;2022-07-22T14:49:10;6.03;;;5.72;;
44664;SDS011;30382;48.802;9.388;2022-07-22T14:51:54;6.80;;;6.40;;
44664;SDS011;30382;48.802;9.388;2022-07-22T14:54:38;6.43;;;5.82;;
44664;SDS011;30382;48.802;9.388;2022-07-22T14:57:23;6.22;;;5.93;;
44664;SDS011;30382;48.802;9.388;2022-07-22T15:00:07;6.88;;;6.38;;
44664;SDS011;30382;48.802;9.388;2022-07-22T15:02:52;5.85;;;5.35;;
44664;SDS011;30382;48.802;9.388;2022-07-22T15:05:36;6.28;;;5.90;;
44664;SDS011;30382;48.802;9.388;2022-07-22T15:08:23;5.15;;;4.85;;
44664;SDS011;30382;48.802;9.388;2022-07-22T15:11:07;5.78;;;5.47;;
44664;SDS011;30382;48.802;9.388;2022-07-22T15:13:51;6.63;;;6.20;;
44664;SDS011;30382;48.802;9.388;2022-07-22T15:16:35;6.70;;;6.20;;
44664;SDS011;30382;48.802;9.388;2022-07-22T15:19:20;7.00;;;6.65;;
44664;SDS011;30382;48.802;9.388;2022-07-22T15:22:04;6.30;;;5.90;;
44664;SDS011;30382;48.802;9.388;2022-07-22T15:24:48;6.47;;;6.07;;
44664;SDS011;30382;48.802;9.388;2022-07-22T15:27:33;5.82;;;5.53;;
44664;SDS011;30382;48.802;9.388;2022-07-22T15:30:21;6.63;;;6.22;;
44664;SDS011;30382;48.802;9.388;2022-07-22T15:33:05;6.82;;;6.20;;
44664;SDS011;30382;48.802;9.388;2022-07-22T15:35:50;6.35;;;5.85;;
44664;SDS011;30382;48.802;9.388;2022-07-22T15:38:34;6.78;;;6.18;;
44664;SDS011;30382;48.802;9.388;2022-07-22T15:41:19;6.60;;;6.20;;
44664;SDS011;30382;48.802;9.388;2022-07-22T15:44:04;6.07;;;5.68;;
44664;SDS011;30382;48.802;9.388;2022-07-22T15:46:48;8.70;;;8.00;;
44664;SDS011;30382;48.802;9.388;2022-07-22T15:49:32;7.87;;;7.37;;
44664;SDS011;30382;48.802;9.388;2022-07-22T15:52:16;7.73;;;7.23;;
44664;SDS011;30382;48.802;9.388;2022-07-22T16:39:08;25.10;;;8.43;;
44664;SDS011;30382;48.802;9.388;2022-07-22T16:41:52;17.07;;;7.90;;
44664;SDS011;30382;48.802;9.388;2022-07-22T16:44:36;6.97;;;6.37;;
44664;SDS011;30382;48.802;9.388;2022-07-22T18:23:14;8.20;;;7.40;;
44664;SDS011;30382;48.802;9.388;2022-07-22T18:25:59;8.13;;;7.33;;
44664;SDS011;30382;48.802;9.388;2022-07-22T18:28:43;9.03;;;8.33;;
44664;SDS011;30382;48.802;9.388;2022-07-22T18:31:27;7.87;;;7.27;;
44664;SDS011;30382;48.802;9.388;2022-07-22T18:34:12;7.53;;;7.03;;
44664;SDS011;30382;48.802;9.388;2022-07-22T18:36:58;7.90;;;7.10;;
44664;SDS011;30382;48.802;9.388;2022-07-22T18:39:42;7.40;;;6.80;;
44664;SDS011;30382;48.802;9.388;2022-07-22T18:42:27;7.37;;;6.67;;
44664;SDS011;30382;48.802;9.388;2022-07-22T18:45:11;7.07;;;6.57;;
44664;SDS011;30382;48.802;9.388;2022-07-22T18:47:55;7.10;;;6.50;;
44664;SDS011;30382;48.802;9.388;2022-07-22T18:54:15;7.33;;;6.73;;
44664;SDS011;30382;48.802;9.388;2022-07-22T18:56:59;7.47;;;6.77;;
44664;SDS011;30382;48.802;9.388;2022-07-22T18:59:43;6.70;;;6.20;;
44664;SDS011;30382;48.802;9.388;2022-07-22T19:02:28;7.67;;;6.47;;
44664;SDS011;30382;48.802;9.388;2022-07-22T19:05:12;5.70;;;5.23;;
44664;SDS011;30382;48.802;9.388;2022-07-22T19:07:56;7.80;;;6.60;;
44664;SDS011;30382;48.802;9.388;2022-07-22T19:10:41;7.10;;;6.50;;
44664;SDS011;30382;48.802;9.388;2022-07-22T19:13:25;7.63;;;7.03;;
44664;SDS011;30382;48.802;9.388;2022-07-22T19:16:10;9.87;;;7.80;;
44664;SDS011;30382;48.802;9.388;2022-07-22T19:18:54;9.10;;;7.10;;
44664;SDS011;30382;48.802;9.388;2022-07-22T19:21:39;7.40;;;6.70;;
44664;SDS011;30382;48.802;9.388;2022-07-22T19:24:23;6.90;;;6.30;;
44664;SDS011;30382;48.802;9.388;2022-07-22T19:27:07;8.07;;;7.37;;
44664;SDS011;30382;48.802;9.388;2022-07-22T19:29:52;8.13;;;7.50;;
44664;SDS011;30382;48.802;9.388;2022-07-22T19:32:36;20.03;;;8.53;;
44664;SDS011;30382;48.802;9.388;2022-07-22T19:35:21;8.20;;;7.50;;
44664;SDS011;30382;48.802;9.388;2022-07-22T19:38:05;9.70;;;8.23;;
44664;SDS011;30382;48.802;9.388;2022-07-22T19:40:49;8.83;;;8.03;;
44664;SDS011;30382;48.802;9.388;2022-07-22T19:43:34;12.50;;;10.23;;
44664;SDS011;30382;48.802;9.388;2022-07-22T19:46:18;8.20;;;7.50;;
44664;SDS011;30382;48.802;9.388;2022-07-22T19:49:03;9.10;;;7.80;;
44664;SDS011;30382;48.802;9.388;2022-07-22T19:51:48;9.90;;;8.93;;
44664;SDS011;30382;48.802;9.388;2022-07-22T19:54:32;9.00;;;8.10;;
44664;SDS011;30382;48.802;9.388;2022-07-22T19:57:16;8.83;;;8.03;;
44664;SDS011;30382;48.802;9.388;2022-07-22T20:00:01;10.23;;;8.80;;
44664;SDS011;30382;48.802;9.388;2022-07-22T20:02:56;9.40;;;8.50;;
44664;SDS011;30382;48.802;9.388;2022-07-22T20:05:40;8.47;;;7.43;;
44664;SDS011;30382;48.802;9.388;2022-07-22T20:08:25;9.43;;;8.63;;
44664;SDS011;30382;48.802;9.388;2022-07-22T20:11:09;8.80;;;7.70;;